TimeEDT,TemperatureF,Dew PointF,Humidity,Sea Level PressureIn,VisibilityMPH,Wind Direction,Wind SpeedMPH,Gust SpeedMPH,PrecipitationIn,Events,Conditions,WindDirDegrees,DateUTC
12:40 AM,75.2,73.4,94,29.91,4.0,Calm,Calm,-,N/A,,Mostly Cloudy,0,2012-07-19 04:40:00
12:53 AM,75.0,73.0,94,29.90,4.0,Calm,Calm,-,N/A,,Scattered Clouds,0,2012-07-19 04:53:00
1:36 AM,73.4,71.6,94,29.91,2.5,Calm,Calm,-,N/A,,Clear,0,2012-07-19 05:36:00
1:43 AM,73.4,71.6,94,29.91,4.0,Calm,Calm,-,N/A,,Clear,0,2012-07-19 05:43:00
1:53 AM,73.9,72.0,93,29.90,4.0,Calm,Calm,-,N/A,,Clear,0,2012-07-19 05:53:00
2:11 AM,73.4,71.6,94,29.92,2.0,Calm,Calm,-,N/A,,Scattered Clouds,0,2012-07-19 06:11:00
2:22 AM,73.4,71.6,94,29.92,4.0,Calm,Calm,-,N/A,,Mostly Cloudy,0,2012-07-19 06:22:00
2:53 AM,72.0,71.1,97,29.91,6.0,Calm,Calm,-,N/A,,Overcast,0,2012-07-19 06:53:00
3:53 AM,73.0,70.0,90,29.91,9.0,NE,3.5,-,N/A,,Clear,40,2012-07-19 07:53:00
4:53 AM,71.1,66.0,84,29.92,10.0,ENE,4.6,-,N/A,,Partly Cloudy,70,2012-07-19 08:53:00
5:53 AM,71.1,57.9,63,29.94,10.0,Variable,6.9,-,N/A,,Overcast,0,2012-07-19 09:53:00
6:02 AM,71.6,59.0,64,29.96,10.0,NNE,11.5,16.1,0.00,Rain,Light Rain,20,2012-07-19 10:02:00
6:53 AM,64.9,61.0,87,29.97,10.0,ENE,3.5,-,0.04,,Overcast,70,2012-07-19 10:53:00
8:53 AM,66.9,60.1,79,30.00,10.0,East,3.5,-,N/A,,Overcast,100,2012-07-19 12:53:00
9:53 AM,68.0,61.0,78,30.01,10.0,Calm,Calm,-,N/A,,Overcast,0,2012-07-19 13:53:00
10:53 AM,69.1,61.0,75,30.02,10.0,ENE,4.6,-,0.00,,Overcast,60,2012-07-19 14:53:00
11:53 AM,71.1,60.1,68,30.02,10.0,ENE,4.6,-,N/A,,Overcast,60,2012-07-19 15:53:00
12:53 PM,70.0,57.9,65,30.02,10.0,NE,3.5,-,N/A,,Overcast,40,2012-07-19 16:53:00
1:53 PM,72.0,59.0,64,30.00,10.0,Calm,Calm,-,N/A,,Overcast,0,2012-07-19 17:53:00
2:53 PM,73.0,59.0,61,29.99,10.0,Variable,3.5,-,N/A,,Overcast,0,2012-07-19 18:53:00
3:53 PM,73.9,61.0,64,29.97,10.0,South,3.5,-,N/A,,Overcast,190,2012-07-19 19:53:00
4:53 PM,77.0,61.0,58,29.96,10.0,Calm,Calm,-,N/A,,Clear,0,2012-07-19 20:53:00
5:53 PM,75.0,61.0,62,29.95,10.0,South,3.5,-,N/A,,Overcast,170,2012-07-19 21:53:00
6:53 PM,73.9,63.0,68,29.95,10.0,SSE,4.6,-,N/A,,Clear,160,2012-07-19 22:53:00
7:53 PM,72.0,61.0,68,29.97,10.0,South,3.5,-,N/A,,Clear,170,2012-07-19 23:53:00
8:53 PM,69.1,62.1,78,29.98,10.0,Calm,Calm,-,N/A,,Clear,0,2012-07-20 00:53:00
9:53 PM,69.1,61.0,75,29.99,10.0,Calm,Calm,-,N/A,,Clear,0,2012-07-20 01:53:00
10:53 PM,68.0,63.0,84,30.00,10.0,Calm,Calm,-,N/A,,Clear,0,2012-07-20 02:53:00
11:53 PM,68.0,62.1,81,30.00,10.0,Calm,Calm,-,N/A,,Scattered Clouds,0,2012-07-20 03:53:00